Time;durP1;ratioP1;P1;durP2;ratioP2;P2;SDS_P1;SDS_P2;PMS_P1;PMS_P2;Temp;Humidity;BMP_temperature;BMP_pressure;BME280_temperature;BME280_humidity;BME280_pressure;Samples;Min_cycle;Max_cycle;Signal;HPM_P1;HPM_P2
2020/12/20 00:02:27;;;;;;;51.20;30.95;;;5.00;91.00;;;;;;5108101;28;20172;-84
2020/12/20 00:04:56;;;;;;;52.00;31.73;;;5.00;90.40;;;;;;5108246;28;20175;-84
2020/12/20 00:07:27;;;;;;;53.80;32.60;;;5.00;90.40;;;;;;5108171;28;20573;-84
2020/12/20 00:09:59;;;;;;;54.22;34.30;;;5.00;90.30;;;;;;5108431;28;20571;-84
2020/12/20 00:12:31;;;;;;;55.28;33.58;;;5.10;90.40;;;;;;5108789;28;20943;-84
2020/12/20 00:14:57;;;;;;;55.33;34.00;;;5.20;90.80;;;;;;5106889;28;20164;-84
2020/12/20 00:17:25;;;;;;;55.60;34.10;;;5.00;90.10;;;;;;5108089;28;20179;-84
2020/12/20 00:19:51;;;;;;;50.45;31.98;;;5.10;90.80;;;;;;5106909;28;20249;-84
2020/12/20 00:22:16;;;;;;;53.40;31.90;;;5.10;90.20;;;;;;5106559;28;20198;-84
2020/12/20 00:24:43;;;;;;;55.93;35.17;;;5.10;90.10;;;;;;5108215;28;20188;-84
2020/12/20 00:27:12;;;;;;;54.10;33.20;;;5.00;90.10;;;;;;5106773;28;20176;-84
2020/12/20 00:29:41;;;;;;;47.45;32.38;;;5.00;90.20;;;;;;5106338;28;20188;-84
2020/12/20 00:32:14;;;;;;;51.72;33.13;;;4.90;90.70;;;;;;5107065;28;20195;-84
2020/12/20 00:34:46;;;;;;;54.10;32.95;;;4.90;91.00;;;;;;5105984;28;20187;-84
2020/12/20 00:37:17;;;;;;;49.30;32.45;;;4.90;91.20;;;;;;5108459;28;20755;-84
2020/12/20 00:39:43;;;;;;;53.63;34.35;;;4.90;90.70;;;;;;5107432;28;20710;-84
2020/12/20 00:42:09;;;;;;;52.47;31.03;;;4.90;91.20;;;;;;5108769;28;20186;-84
2020/12/20 00:44:43;;;;;;;53.97;31.17;;;4.80;91.30;;;;;;5108269;28;20195;-84
2020/12/20 00:47:09;;;;;;;54.60;31.05;;;4.80;91.90;;;;;;5107443;28;20187;-84
2020/12/20 00:49:37;;;;;;;55.70;34.87;;;4.80;91.80;;;;;;5107046;28;20722;-84
2020/12/20 00:52:07;;;;;;;59.03;34.65;;;4.80;91.90;;;;;;5108063;28;20249;-84
2020/12/20 00:54:39;;;;;;;53.50;33.70;;;4.80;91.90;;;;;;5107920;28;20229;-85
2020/12/20 00:57:05;;;;;;;50.13;31.52;;;4.80;91.70;;;;;;5107642;28;20191;-84
2020/12/20 00:59:42;;;;;;;58.57;32.77;;;4.80;91.90;;;;;;5108589;28;20203;-84
2020/12/20 01:02:16;;;;;;;54.92;32.10;;;4.80;92.00;;;;;;5107883;28;20636;-84
2020/12/20 01:04:42;;;;;;;51.88;32.90;;;4.80;92.40;;;;;;5106037;28;20181;-85
2020/12/20 01:07:19;;;;;;;57.20;33.57;;;4.80;93.20;;;;;;5106326;28;20176;-84
2020/12/20 01:09:46;;;;;;;57.75;34.88;;;4.90;92.20;;;;;;5107973;28;20726;-84
2020/12/20 01:12:12;;;;;;;55.60;33.75;;;4.90;92.70;;;;;;5107651;28;20199;-84
2020/12/20 01:14:37;;;;;;;58.37;34.77;;;4.90;92.40;;;;;;5105108;28;20214;-84
2020/12/20 01:17:12;;;;;;;62.93;35.80;;;4.90;92.70;;;;;;5107425;28;20168;-84
2020/12/20 01:19:38;;;;;;;68.10;37.45;;;4.90;92.30;;;;;;5105548;28;20599;-84
2020/12/20 01:22:07;;;;;;;60.63;37.28;;;4.80;92.40;;;;;;5106932;28;20211;-84
2020/12/20 01:27:42;;;;;;;60.58;35.45;;;4.80;92.70;;;;;;5107484;28;20248;-84
2020/12/20 01:30:11;;;;;;;58.35;33.75;;;4.80;92.80;;;;;;5106446;28;20202;-84
2020/12/20 01:32:36;;;;;;;65.57;35.83;;;4.80;93.00;;;;;;5106111;28;20268;-84
2020/12/20 01:35:14;;;;;;;67.37;36.47;;;4.80;93.10;;;;;;5107561;28;20396;-84
2020/12/20 01:37:40;;;;;;;59.47;35.70;;;4.80;93.50;;;;;;5105937;28;20199;-84
2020/12/20 01:40:17;;;;;;;65.80;36.53;;;4.80;93.10;;;;;;5107569;28;20624;-84
2020/12/20 01:42:53;;;;;;;61.17;36.08;;;4.80;93.30;;;;;;5106025;28;20607;-84
2020/12/20 01:45:24;;;;;;;72.53;36.47;;;4.80;93.40;;;;;;5105372;28;20183;-84
2020/12/20 01:47:50;;;;;;;61.80;35.80;;;4.80;93.90;;;;;;5107496;28;20180;-84
2020/12/20 01:50:22;;;;;;;63.17;37.30;;;4.70;93.60;;;;;;5105649;28;20644;-84
2020/12/20 01:52:57;;;;;;;64.88;37.45;;;4.70;93.80;;;;;;5106183;28;20743;-84
2020/12/20 01:55:24;;;;;;;63.88;38.45;;;4.70;93.70;;;;;;5105493;28;20174;-84
2020/12/20 01:57:56;;;;;;;71.45;38.75;;;4.70;93.80;;;;;;5105772;28;20184;-84
2020/12/20 02:00:28;;;;;;;66.13;39.55;;;4.80;94.00;;;;;;5106727;28;20168;-84
2020/12/20 02:03:08;;;;;;;66.35;39.97;;;4.90;93.80;;;;;;5106783;28;20245;-84
2020/12/20 02:05:37;;;;;;;60.83;39.05;;;4.80;93.50;;;;;;5106923;28;20182;-84
2020/12/20 02:08:06;;;;;;;63.20;39.15;;;4.80;93.40;;;;;;5105099;28;20188;-84
2020/12/20 02:10:31;;;;;;;65.57;39.33;;;4.80;93.20;;;;;;5105760;28;20187;-84
2020/12/20 02:13:02;;;;;;;64.40;37.47;;;4.90;93.20;;;;;;5105005;28;20227;-84
2020/12/20 02:15:39;;;;;;;66.25;37.85;;;4.80;93.10;;;;;;5105647;28;20217;-84
2020/12/20 02:18:08;;;;;;;61.88;36.08;;;4.80;93.00;;;;;;5106991;28;20180;-84
2020/12/20 02:20:37;;;;;;;65.90;38.58;;;4.90;93.40;;;;;;5104659;28;20186;-84
2020/12/20 02:23:08;;;;;;;65.60;39.30;;;4.90;92.80;;;;;;5107462;28;20211;-84
2020/12/20 02:25:34;;;;;;;66.22;36.65;;;4.80;93.00;;;;;;5105043;28;20608;-84
2020/12/20 02:28:05;;;;;;;73.30;40.03;;;4.80;92.90;;;;;;5107363;28;20187;-84
2020/12/20 02:30:34;;;;;;;64.75;37.10;;;4.80;93.70;;;;;;5110435;27;20168;-84
2020/12/20 02:33:00;;;;;;;67.53;37.50;;;4.80;93.20;;;;;;5108403;28;20230;-84
2020/12/20 02:35:28;;;;;;;64.20;37.80;;;4.80;93.50;;;;;;5110177;28;20176;-84
2020/12/20 02:37:59;;;;;;;59.42;36.15;;;4.80;93.00;;;;;;5109343;28;20182;-84
2020/12/20 02:40:25;;;;;;;60.38;36.60;;;4.70;93.40;;;;;;5108685;28;20655;-84
2020/12/20 02:42:51;;;;;;;70.05;37.90;;;4.80;93.30;;;;;;5109326;28;20184;-84
2020/12/20 02:45:17;;;;;;;61.67;34.47;;;4.90;93.70;;;;;;5108799;28;20183;-84
2020/12/20 02:47:42;;;;;;;62.70;34.13;;;4.80;93.40;;;;;;5109022;28;20223;-84
2020/12/20 02:50:10;;;;;;;69.80;38.30;;;4.70;93.80;;;;;;5109693;28;20239;-84
2020/12/20 02:52:39;;;;;;;65.18;37.55;;;4.80;93.60;;;;;;5109766;28;20219;-84
2020/12/20 02:55:08;;;;;;;62.97;37.92;;;4.80;94.00;;;;;;5109739;28;20186;-84
2020/12/20 02:57:39;;;;;;;66.80;38.28;;;4.80;93.80;;;;;;5109722;27;20731;-84
2020/12/20 03:00:07;;;;;;;60.08;38.08;;;4.80;93.80;;;;;;5107731;28;20176;-84
2020/12/20 03:02:33;;;;;;;67.85;40.42;;;4.80;94.00;;;;;;5109411;28;20171;-84
2020/12/20 03:05:01;;;;;;;71.77;39.80;;;4.80;94.10;;;;;;5109613;28;20666;-84
2020/12/20 03:07:27;;;;;;;64.85;39.17;;;4.80;94.40;;;;;;5109470;28;20655;-84
2020/12/20 03:09:53;;;;;;;65.70;40.60;;;4.80;93.70;;;;;;5108286;28;20191;-84
2020/12/20 03:12:19;;;;;;;67.93;39.47;;;4.80;94.00;;;;;;5109326;28;20210;-84
2020/12/20 03:14:48;;;;;;;67.55;39.15;;;4.80;93.80;;;;;;5109359;28;20370;-84
2020/12/20 03:17:13;;;;;;;62.17;35.92;;;4.80;93.90;;;;;;5107377;28;20200;-84
2020/12/20 03:19:39;;;;;;;70.80;38.37;;;4.70;94.20;;;;;;5109946;28;20665;-84
2020/12/20 03:22:07;;;;;;;69.27;38.27;;;4.80;94.50;;;;;;5109161;28;20640;-84
2020/12/20 03:24:38;;;;;;;65.28;37.47;;;4.80;94.40;;;;;;5108271;28;20676;-83
2020/12/20 03:27:07;;;;;;;72.65;40.00;;;4.80;94.20;;;;;;5107762;28;20184;-84
2020/12/20 03:29:32;;;;;;;71.95;38.78;;;4.80;94.10;;;;;;5109505;28;20386;-84
2020/12/20 03:31:58;;;;;;;65.90;39.13;;;4.90;94.60;;;;;;5107927;28;20740;-84
2020/12/20 03:34:24;;;;;;;66.83;39.43;;;4.80;94.10;;;;;;5108728;28;20180;-84
2020/12/20 03:36:52;;;;;;;66.70;37.93;;;4.80;94.50;;;;;;5109002;28;20262;-84
2020/12/20 03:39:21;;;;;;;72.03;39.42;;;4.90;94.30;;;;;;5108707;28;20610;-84
2020/12/20 03:41:55;;;;;;;65.05;36.63;;;4.80;94.50;;;;;;5107875;28;20708;-84
2020/12/20 03:44:24;;;;;;;66.05;39.35;;;4.80;94.70;;;;;;5108392;27;20534;-84
2020/12/20 03:46:50;;;;;;;66.90;38.08;;;4.90;94.60;;;;;;5087481;28;20180;-84
2020/12/20 03:49:18;;;;;;;67.27;39.20;;;5.00;94.50;;;;;;5087183;28;20986;-84
2020/12/20 03:51:44;;;;;;;66.20;37.50;;;4.90;93.80;;;;;;5104569;28;20695;-84
2020/12/20 03:54:15;;;;;;;63.07;37.00;;;4.90;94.30;;;;;;5108986;28;20171;-84
2020/12/20 03:56:41;;;;;;;72.07;35.58;;;4.90;94.30;;;;;;5107750;28;20224;-84
2020/12/20 03:59:10;;;;;;;77.87;40.10;;;4.90;94.00;;;;;;5105360;28;20211;-84
2020/12/20 04:01:39;;;;;;;67.03;38.35;;;4.80;94.30;;;;;;5104632;28;20230;-84
2020/12/20 04:04:04;;;;;;;70.53;39.08;;;4.90;94.00;;;;;;5106682;28;20184;-84
2020/12/20 04:06:30;;;;;;;62.57;36.90;;;4.80;94.30;;;;;;5107094;28;20190;-83
2020/12/20 04:08:55;;;;;;;71.03;38.10;;;4.80;94.30;;;;;;5107560;28;20195;-84
2020/12/20 04:11:21;;;;;;;76.70;40.73;;;4.80;94.40;;;;;;5106554;28;20640;-84
2020/12/20 04:13:52;;;;;;;67.73;38.90;;;4.80;94.70;;;;;;5108143;28;20602;-84
2020/12/20 04:16:24;;;;;;;64.00;37.00;;;4.90;94.50;;;;;;5108197;28;20187;-84
2020/12/20 04:18:49;;;;;;;66.93;38.47;;;4.90;94.10;;;;;;5108496;28;20183;-84
2020/12/20 04:21:21;;;;;;;68.40;37.30;;;4.90;94.10;;;;;;5106164;28;20521;-84
2020/12/20 04:23:46;;;;;;;68.18;38.58;;;4.90;93.80;;;;;;5108296;28;20254;-84
2020/12/20 04:27:04;;;;;;;67.67;37.83;;;4.90;93.90;;;;;;5108205;28;20320;-84
2020/12/20 04:29:30;;;;;;;62.85;36.00;;;4.80;94.20;;;;;;5106829;28;20257;-84
2020/12/20 04:32:01;;;;;;;65.90;36.50;;;4.90;94.00;;;;;;5107629;28;21143;-84
2020/12/20 04:34:30;;;;;;;65.25;37.80;;;4.90;93.70;;;;;;5107468;28;20168;-84
2020/12/20 04:36:55;;;;;;;65.22;36.20;;;5.00;93.60;;;;;;5105930;28;20180;-84
2020/12/20 04:39:24;;;;;;;69.50;39.37;;;5.00;93.60;;;;;;5107763;28;20186;-84
2020/12/20 04:41:49;;;;;;;67.68;37.08;;;4.90;94.00;;;;;;5106324;28;20186;-84
2020/12/20 04:44:18;;;;;;;69.47;37.17;;;4.90;94.00;;;;;;5106537;28;20631;-84
2020/12/20 04:46:45;;;;;;;69.47;38.25;;;4.90;94.10;;;;;;5087588;28;20181;-84
2020/12/20 04:49:16;;;;;;;69.45;38.67;;;5.00;93.70;;;;;;5087045;28;20180;-84
2020/12/20 04:52:25;;;;;;;70.13;38.67;;;4.90;93.90;;;;;;5102280;28;20209;-84
2020/12/20 04:54:51;;;;;;;67.30;37.67;;;4.90;94.00;;;;;;5106700;28;20259;-84
2020/12/20 04:57:17;;;;;;;71.10;40.45;;;5.00;93.80;;;;;;5107849;28;20555;-83
2020/12/20 04:59:46;;;;;;;66.93;38.60;;;5.00;94.10;;;;;;5106069;28;20236;-84
2020/12/20 05:02:17;;;;;;;71.00;39.25;;;4.90;94.40;;;;;;5107930;28;20623;-84
2020/12/20 05:04:42;;;;;;;67.93;39.65;;;4.90;94.30;;;;;;5106325;28;20195;-84
2020/12/20 05:07:11;;;;;;;110.87;60.73;;;4.90;94.50;;;;;;5106226;28;20187;-84
2020/12/20 05:09:47;;;;;;;155.95;88.45;;;4.90;94.20;;;;;;5105677;28;20256;-84
2020/12/20 05:12:33;;;;;;;153.63;87.05;;;4.90;94.20;;;;;;5107235;28;20211;-84
2020/12/20 05:15:20;;;;;;;116.05;62.38;;;4.90;93.80;;;;;;5105676;28;20183;-84
2020/12/20 05:17:48;;;;;;;96.35;54.28;;;5.00;94.00;;;;;;5107538;28;20186;-84
2020/12/20 05:20:35;;;;;;;85.70;49.47;;;5.00;93.70;;;;;;5107365;28;20176;-84
2020/12/20 05:23:01;;;;;;;106.63;56.15;;;5.00;94.00;;;;;;5106375;28;20226;-84
2020/12/20 05:25:32;;;;;;;98.03;51.30;;;5.00;94.30;;;;;;5107390;28;20203;-84
2020/12/20 05:28:32;;;;;;;83.32;45.88;;;5.00;94.00;;;;;;5104786;28;20180;-84
2020/12/20 05:31:18;;;;;;;78.60;41.00;;;4.90;94.10;;;;;;5105656;28;20183;-84
2020/12/20 05:33:43;;;;;;;69.70;39.75;;;5.00;94.30;;;;;;5106194;28;20195;-84
2020/12/20 05:36:25;;;;;;;71.43;39.77;;;5.00;94.20;;;;;;5106877;28;20599;-84
2020/12/20 05:39:11;;;;;;;76.50;41.55;;;5.00;94.70;;;;;;5105879;28;20522;-84
2020/12/20 05:41:43;;;;;;;68.57;38.95;;;5.00;94.40;;;;;;5105781;28;20214;-84
2020/12/20 05:44:16;;;;;;;68.72;36.80;;;5.00;94.30;;;;;;5106020;28;20627;-84
2020/12/20 05:46:43;;;;;;;72.93;38.15;;;4.90;94.40;;;;;;5088379;28;20267;-84
2020/12/20 05:49:22;;;;;;;70.88;38.70;;;5.00;94.60;;;;;;5086535;28;20183;-84
2020/12/20 05:52:02;;;;;;;69.72;38.42;;;5.10;94.60;;;;;;5102192;28;20270;-84
2020/12/20 05:54:49;;;;;;;66.20;38.63;;;5.00;94.60;;;;;;5107278;28;20562;-84
2020/12/20 05:57:22;;;;;;;68.78;39.15;;;5.00;94.60;;;;;;5106802;28;20186;-84
2020/12/20 05:59:53;;;;;;;81.13;41.50;;;5.00;94.40;;;;;;5105921;28;20176;-84
2020/12/20 06:02:19;;;;;;;92.55;45.17;;;5.00;94.40;;;;;;5108625;28;20168;-83
2020/12/20 06:04:46;;;;;;;91.10;48.60;;;5.00;93.80;;;;;;5110842;28;20186;-84
2020/12/20 06:07:16;;;;;;;117.70;64.05;;;5.00;94.10;;;;;;5110832;28;20224;-84
2020/12/20 06:10:03;;;;;;;139.27;72.85;;;5.00;94.10;;;;;;5109641;28;21045;-84
2020/12/20 06:12:33;;;;;;;99.85;54.10;;;5.10;94.40;;;;;;5109687;28;20252;-84
2020/12/20 06:14:59;;;;;;;80.43;44.17;;;4.90;93.90;;;;;;5110058;28;20955;-84
2020/12/20 06:17:31;;;;;;;69.30;40.63;;;5.00;94.10;;;;;;5110257;28;20631;-84
2020/12/20 06:20:07;;;;;;;78.43;43.33;;;4.90;94.00;;;;;;5110517;28;20178;-84
2020/12/20 06:22:37;;;;;;;78.15;42.72;;;5.00;94.40;;;;;;5110638;28;20179;-84
2020/12/20 06:25:05;;;;;;;77.35;42.78;;;4.90;94.50;;;;;;5110144;28;20176;-84
2020/12/20 06:27:32;;;;;;;81.15;44.42;;;4.90;94.10;;;;;;5108986;28;20236;-84
2020/12/20 06:30:02;;;;;;;77.68;42.70;;;4.90;94.10;;;;;;5108729;28;20183;-84
2020/12/20 06:32:44;;;;;;;75.15;41.42;;;4.90;94.40;;;;;;5108573;27;20655;-84
2020/12/20 06:35:33;;;;;;;84.53;47.60;;;5.00;94.30;;;;;;5110420;28;20240;-84
2020/12/20 06:38:04;;;;;;;97.53;51.58;;;4.90;94.30;;;;;;5110295;28;20523;-84
2020/12/20 06:40:32;;;;;;;89.80;48.17;;;5.00;94.40;;;;;;5108743;28;20218;-84
2020/12/20 06:43:01;;;;;;;81.85;46.38;;;5.00;94.70;;;;;;5108969;28;20584;-84
2020/12/20 06:45:27;;;;;;;75.38;44.38;;;5.00;95.10;;;;;;5101051;28;20640;-84
2020/12/20 06:48:00;;;;;;;83.22;44.80;;;5.10;94.90;;;;;;5088995;28;20185;-84
2020/12/20 06:50:38;;;;;;;77.13;47.90;;;5.10;94.30;;;;;;5094817;28;20559;-84
2020/12/20 06:53:07;;;;;;;79.55;44.08;;;5.00;94.70;;;;;;5108512;28;20558;-84
2020/12/20 06:55:32;;;;;;;77.03;45.10;;;5.00;94.70;;;;;;5108527;28;20294;-84
2020/12/20 06:58:04;;;;;;;80.17;44.73;;;5.10;94.30;;;;;;5108638;28;20298;-84
2020/12/20 07:00:49;;;;;;;73.75;40.97;;;5.00;94.40;;;;;;5108414;28;20643;-84
2020/12/20 07:03:31;;;;;;;76.38;42.28;;;5.00;94.70;;;;;;5108446;28;20698;-84
2020/12/20 07:06:12;;;;;;;70.30;39.53;;;5.00;94.60;;;;;;5109073;28;20542;-84
2020/12/20 07:08:41;;;;;;;74.90;39.25;;;5.00;94.70;;;;;;5109654;28;20187;-84
2020/12/20 07:11:18;;;;;;;68.60;38.10;;;4.90;94.80;;;;;;5108895;28;20180;-84
2020/12/20 07:13:45;;;;;;;71.93;41.38;;;4.90;95.10;;;;;;5107493;28;20195;-84
2020/12/20 07:16:16;;;;;;;66.88;37.65;;;4.90;95.10;;;;;;5110028;28;20369;-84
2020/12/20 07:19:00;;;;;;;74.85;38.83;;;4.90;95.20;;;;;;5110373;28;20251;-84
2020/12/20 07:21:32;;;;;;;67.25;38.15;;;4.90;95.40;;;;;;5106960;28;20175;-84
2020/12/20 07:24:04;;;;;;;76.10;40.88;;;4.90;95.50;;;;;;5108389;28;20179;-83
2020/12/20 07:26:31;;;;;;;74.78;39.25;;;4.90;95.50;;;;;;5109466;28;20574;-84
2020/12/20 07:29:03;;;;;;;76.85;41.47;;;4.90;95.70;;;;;;5109208;28;20183;-84
2020/12/20 07:31:32;;;;;;;71.53;40.22;;;5.00;95.70;;;;;;5108307;28;20259;-85
2020/12/20 07:33:58;;;;;;;73.25;42.13;;;4.90;95.90;;;;;;5108576;28;20211;-85
2020/12/20 07:36:27;;;;;;;71.18;41.80;;;5.00;95.50;;;;;;5107869;28;20186;-85
2020/12/20 07:38:53;;;;;;;81.78;45.47;;;5.00;95.60;;;;;;5109960;28;20188;-84
2020/12/20 07:41:20;;;;;;;74.72;42.30;;;5.00;95.70;;;;;;5109718;28;20172;-84
2020/12/20 07:43:47;;;;;;;79.03;43.58;;;5.00;95.60;;;;;;5109778;28;20211;-84
2020/12/20 07:46:17;;;;;;;84.13;44.50;;;5.00;95.90;;;;;;5093406;28;20176;-85
2020/12/20 07:48:43;;;;;;;83.55;45.72;;;5.10;95.80;;;;;;5089066;28;20708;-84
2020/12/20 07:51:27;;;;;;;86.17;50.00;;;5.10;95.60;;;;;;5099426;28;20251;-84
2020/12/20 07:53:57;;;;;;;74.80;43.58;;;5.20;95.80;;;;;;5108572;28;20907;-85
2020/12/20 07:56:46;;;;;;;76.60;46.00;;;5.10;95.90;;;;;;5108719;28;20263;-84
2020/12/20 07:59:17;;;;;;;71.70;42.33;;;5.20;95.80;;;;;;5109363;28;20198;-85
2020/12/20 08:01:46;;;;;;;71.70;43.03;;;5.20;96.10;;;;;;5108707;28;20168;-84
2020/12/20 08:04:23;;;;;;;77.90;44.05;;;5.30;95.70;;;;;;5109056;28;20246;-85
2020/12/20 08:06:58;;;;;;;82.38;45.67;;;5.20;95.90;;;;;;5108699;28;20699;-84
2020/12/20 08:09:26;;;;;;;71.05;42.90;;;5.30;96.10;;;;;;5108264;28;20622;-84
2020/12/20 08:11:55;;;;;;;73.30;43.38;;;5.30;95.80;;;;;;5109082;28;20200;-85
2020/12/20 08:14:33;;;;;;;69.45;43.55;;;5.30;95.90;;;;;;5106708;28;20207;-84
2020/12/20 08:16:58;;;;;;;75.30;45.03;;;5.40;95.80;;;;;;5108381;28;20160;-85
2020/12/20 08:19:34;;;;;;;72.73;43.30;;;5.40;96.00;;;;;;5108563;28;20666;-84
2020/12/20 08:22:09;;;;;;;70.80;43.20;;;5.40;95.80;;;;;;5109105;28;20159;-85
2020/12/20 08:24:40;;;;;;;72.95;44.35;;;5.40;95.90;;;;;;5107758;28;20235;-84
2020/12/20 08:27:28;;;;;;;76.88;44.88;;;5.40;96.00;;;;;;5108302;28;20218;-84
2020/12/20 08:29:56;;;;;;;69.28;42.42;;;5.40;96.30;;;;;;5107183;28;20184;-85
2020/12/20 08:32:24;;;;;;;73.25;43.40;;;5.50;96.00;;;;;;5107467;28;20552;-84
2020/12/20 08:34:50;;;;;;;73.53;44.47;;;5.50;95.90;;;;;;5108154;28;20258;-84
2020/12/20 08:37:25;;;;;;;75.95;47.45;;;5.50;95.90;;;;;;5106967;28;20269;-83
2020/12/20 08:39:53;;;;;;;84.25;50.65;;;5.50;96.20;;;;;;5108314;28;20213;-84
2020/12/20 08:42:25;;;;;;;83.50;51.00;;;5.50;96.10;;;;;;5106758;28;20520;-84
2020/12/20 08:44:51;;;;;;;90.78;57.97;;;5.60;96.10;;;;;;5103752;28;20181;-85
2020/12/20 08:47:19;;;;;;;86.60;55.90;;;5.60;95.80;;;;;;5087678;28;20183;-83
2020/12/20 08:49:59;;;;;;;89.65;57.13;;;5.60;95.70;;;;;;5087833;28;20299;-85
2020/12/20 08:52:29;;;;;;;82.28;49.58;;;5.70;95.80;;;;;;5086940;28;20728;-85
2020/12/20 08:55:00;;;;;;;79.30;48.15;;;5.70;95.90;;;;;;5087969;28;20694;-84
2020/12/20 08:57:39;;;;;;;91.03;50.80;;;5.60;96.00;;;;;;5086668;28;20196;-85
2020/12/20 09:00:17;;;;;;;88.28;51.65;;;5.60;96.10;;;;;;5085884;28;20173;-85
2020/12/20 09:02:46;;;;;;;77.15;47.53;;;5.70;95.90;;;;;;5086149;28;20191;-85
2020/12/20 09:05:17;;;;;;;80.35;48.90;;;5.70;95.50;;;;;;5087832;28;20177;-84
2020/12/20 09:07:45;;;;;;;92.10;50.35;;;5.70;95.60;;;;;;5087518;28;20229;-85
2020/12/20 09:10:12;;;;;;;91.03;53.38;;;5.80;95.40;;;;;;5086425;28;20195;-85
2020/12/20 09:12:47;;;;;;;83.22;50.95;;;5.90;95.40;;;;;;5087537;28;20222;-84
2020/12/20 09:15:16;;;;;;;83.97;52.78;;;5.90;95.10;;;;;;5086192;28;20909;-85
2020/12/20 09:17:44;;;;;;;85.32;50.35;;;5.90;94.90;;;;;;5087739;28;20565;-84
2020/12/20 09:20:13;;;;;;;78.68;49.33;;;5.80;94.80;;;;;;5087319;28;20234;-84
2020/12/20 09:22:44;;;;;;;87.68;51.97;;;5.90;94.30;;;;;;5086875;28;20172;-84
2020/12/20 09:25:15;;;;;;;82.25;51.20;;;5.90;94.30;;;;;;5087170;28;20203;-84
2020/12/20 09:27:51;;;;;;;80.70;49.58;;;5.90;94.90;;;;;;5086378;28;20485;-84
2020/12/20 09:30:17;;;;;;;81.53;46.75;;;5.90;94.90;;;;;;5084326;28;20588;-84
2020/12/20 09:32:45;;;;;;;87.13;49.67;;;6.00;94.60;;;;;;5085848;28;20248;-84
2020/12/20 09:35:11;;;;;;;79.75;48.97;;;6.00;94.30;;;;;;5087223;28;20184;-84
2020/12/20 09:37:38;;;;;;;80.27;50.37;;;6.10;94.20;;;;;;5091408;28;20513;-85
2020/12/20 09:40:10;;;;;;;87.35;49.47;;;6.10;93.00;;;;;;5090979;28;20181;-85
2020/12/20 09:42:43;;;;;;;72.28;46.65;;;6.10;93.90;;;;;;5090755;28;20202;-84
2020/12/20 09:45:12;;;;;;;77.30;46.03;;;6.20;93.40;;;;;;5097258;28;20200;-85
2020/12/20 09:47:43;;;;;;;77.00;50.03;;;6.10;92.60;;;;;;5110699;28;20248;-84
2020/12/20 09:50:10;;;;;;;76.13;46.45;;;6.10;92.50;;;;;;5109623;28;20227;-84
2020/12/20 09:52:37;;;;;;;89.10;50.20;;;6.10;92.30;;;;;;5110332;28;20594;-84
2020/12/20 09:55:08;;;;;;;72.60;45.30;;;6.10;92.20;;;;;;5111369;27;20179;-85
2020/12/20 09:57:36;;;;;;;88.53;53.30;;;6.20;91.50;;;;;;5110714;28;20654;-84
2020/12/20 10:00:03;;;;;;;78.80;48.50;;;6.10;92.00;;;;;;5111621;28;20172;-85
2020/12/20 10:02:32;;;;;;;72.38;45.03;;;6.20;91.90;;;;;;5109126;28;20186;-85
2020/12/20 10:04:57;;;;;;;76.28;45.20;;;6.20;92.30;;;;;;5107621;28;20192;-84
2020/12/20 10:07:23;;;;;;;67.10;44.47;;;6.20;92.30;;;;;;5110160;28;20178;-84
2020/12/20 10:09:55;;;;;;;84.63;52.97;;;6.20;91.40;;;;;;5109760;28;20198;-85
2020/12/20 10:12:21;;;;;;;69.57;46.25;;;6.30;91.10;;;;;;5109178;27;20191;-84
2020/12/20 10:14:49;;;;;;;65.40;39.47;;;6.40;91.00;;;;;;5108321;28;20622;-85
2020/12/20 10:17:17;;;;;;;61.33;41.45;;;6.30;90.70;;;;;;5109130;28;20224;-85
2020/12/20 10:19:43;;;;;;;63.60;42.70;;;6.30;89.40;;;;;;5108376;28;20188;-84
2020/12/20 10:22:09;;;;;;;66.63;41.40;;;6.30;90.10;;;;;;5109624;28;20535;-85
2020/12/20 10:24:37;;;;;;;82.50;63.90;;;6.20;90.80;;;;;;5109786;28;20180;-84
2020/12/20 10:27:03;;;;;;;79.38;54.92;;;6.30;89.70;;;;;;5110798;28;20259;-85
2020/12/20 10:29:28;;;;;;;75.63;43.50;;;6.40;90.00;;;;;;5109343;28;20270;-84
2020/12/20 10:32:00;;;;;;;65.87;41.67;;;6.40;88.90;;;;;;5110301;28;20218;-84
2020/12/20 10:34:25;;;;;;;63.70;42.63;;;6.40;89.10;;;;;;5109902;28;20183;-85
2020/12/20 10:36:54;;;;;;;69.80;43.63;;;6.40;88.50;;;;;;5110027;28;20176;-85
2020/12/20 10:39:25;;;;;;;64.40;41.00;;;6.40;89.90;;;;;;5110787;28;20177;-84
2020/12/20 10:42:03;;;;;;;61.10;39.47;;;6.50;88.70;;;;;;5108775;28;20188;-84
2020/12/20 10:44:28;;;;;;;64.28;45.35;;;6.30;89.80;;;;;;5109875;28;20666;-84
2020/12/20 10:46:54;;;;;;;68.53;43.13;;;6.20;89.80;;;;;;5108160;28;20219;-84
2020/12/20 10:49:26;;;;;;;89.85;78.20;;;6.20;89.80;;;;;;5109163;28;20176;-83
2020/12/20 10:51:53;;;;;;;78.13;56.75;;;6.30;90.30;;;;;;5107627;28;20212;-84
2020/12/20 10:54:53;;;;;;;76.70;55.60;;;6.30;90.50;;;;;;5108846;28;20183;-84
2020/12/20 10:57:24;;;;;;;68.40;45.38;;;6.30;90.40;;;;;;5110291;28;20213;-84
2020/12/20 10:59:56;;;;;;;77.45;51.13;;;6.30;90.70;;;;;;5111804;28;20171;-85
2020/12/20 11:02:21;;;;;;;92.85;66.10;;;6.30;91.00;;;;;;5110584;28;20164;-84
2020/12/20 11:04:47;;;;;;;73.50;47.37;;;6.40;91.00;;;;;;5108635;28;20236;-85
2020/12/20 11:07:14;;;;;;;77.43;46.37;;;6.40;90.60;;;;;;5109454;28;20188;-84
2020/12/20 11:09:46;;;;;;;72.88;46.90;;;6.40;90.80;;;;;;5109602;28;20191;-85
2020/12/20 11:12:12;;;;;;;78.60;47.45;;;6.40;90.60;;;;;;5108493;28;20214;-85
2020/12/20 11:14:38;;;;;;;79.63;46.23;;;6.40;90.50;;;;;;5108867;28;20272;-85
2020/12/20 11:17:03;;;;;;;74.93;48.30;;;6.40;90.80;;;;;;5109270;28;20228;-85
2020/12/20 11:19:29;;;;;;;77.17;47.17;;;6.30;90.70;;;;;;5110285;28;20435;-84
2020/12/20 11:21:56;;;;;;;67.73;44.40;;;6.40;90.40;;;;;;5109479;27;20519;-84
2020/12/20 11:24:25;;;;;;;66.78;45.45;;;6.40;90.80;;;;;;5108476;28;20536;-85
2020/12/20 11:26:55;;;;;;;71.20;45.30;;;6.30;90.60;;;;;;5109610;28;20199;-85
2020/12/20 11:29:23;;;;;;;69.35;48.50;;;6.40;90.70;;;;;;5109388;28;20269;-85
2020/12/20 11:31:48;;;;;;;67.15;45.00;;;6.40;90.20;;;;;;5109663;28;20207;-85
2020/12/20 11:34:15;;;;;;;79.30;48.70;;;6.40;90.50;;;;;;5109404;28;20186;-84
2020/12/20 11:36:42;;;;;;;73.43;46.20;;;6.40;91.30;;;;;;5108877;28;20172;-85
2020/12/20 11:39:13;;;;;;;69.38;44.20;;;6.40;91.30;;;;;;5109933;28;20201;-84
2020/12/20 11:41:39;;;;;;;81.43;47.90;;;6.40;91.10;;;;;;5106475;28;20176;-85
2020/12/20 11:44:08;;;;;;;53.83;38.17;;;6.40;91.20;;;;;;5109485;28;20179;-84
2020/12/20 11:46:34;;;;;;;55.45;39.03;;;6.40;90.10;;;;;;5107543;28;20843;-84
2020/12/20 11:49:00;;;;;;;63.83;42.20;;;6.40;90.30;;;;;;5109081;28;20179;-85
2020/12/20 11:51:27;;;;;;;62.28;39.20;;;6.30;90.40;;;;;;5106217;28;20232;-85
2020/12/20 11:53:56;;;;;;;68.88;43.25;;;6.30;90.00;;;;;;5090719;28;20227;-85
2020/12/20 11:56:22;;;;;;;57.63;38.05;;;6.30;90.30;;;;;;5100625;28;20229;-84
2020/12/20 11:58:48;;;;;;;65.30;41.73;;;6.40;90.30;;;;;;5109450;28;20636;-85
2020/12/20 12:01:20;;;;;;;62.97;40.95;;;6.40;90.70;;;;;;5107272;28;20419;-85
2020/12/20 12:03:49;;;;;;;59.75;39.38;;;6.50;89.40;;;;;;5105239;28;20184;-84
2020/12/20 12:06:14;;;;;;;57.10;39.17;;;6.50;88.90;;;;;;5105517;28;20195;-84
2020/12/20 12:08:41;;;;;;;59.97;38.17;;;6.50;89.00;;;;;;5096247;28;20188;-85
2020/12/20 12:11:06;;;;;;;65.38;42.85;;;6.50;90.60;;;;;;5097606;28;20203;-84
2020/12/20 12:13:32;;;;;;;62.00;40.00;;;6.50;89.50;;;;;;5086810;28;20204;-84
2020/12/20 12:15:57;;;;;;;54.77;35.10;;;6.50;88.30;;;;;;5096152;28;20184;-84
2020/12/20 12:18:23;;;;;;;60.90;36.43;;;6.60;88.50;;;;;;5094223;28;20229;-84
2020/12/20 12:20:49;;;;;;;52.97;34.30;;;6.50;88.30;;;;;;5090296;28;20205;-85
2020/12/20 12:23:17;;;;;;;59.40;36.37;;;6.40;88.40;;;;;;5088279;28;20177;-85
2020/12/20 12:25:43;;;;;;;62.90;39.67;;;6.50;87.60;;;;;;5100923;28;20192;-85
2020/12/20 12:28:08;;;;;;;62.23;42.90;;;6.50;87.90;;;;;;5105085;27;20241;-84
2020/12/20 12:30:39;;;;;;;55.50;37.03;;;6.50;86.80;;;;;;5095491;28;20683;-85
2020/12/20 12:33:11;;;;;;;63.45;45.10;;;6.50;87.40;;;;;;5105994;28;20207;-85
2020/12/20 12:35:37;;;;;;;67.90;45.72;;;6.40;87.30;;;;;;5106820;28;20175;-85
2020/12/20 12:38:02;;;;;;;54.63;35.10;;;6.50;86.10;;;;;;5096861;28;20784;-85
2020/12/20 12:40:31;;;;;;;50.77;35.10;;;6.50;86.80;;;;;;5093958;28;20188;-85
2020/12/20 12:43:05;;;;;;;59.67;38.13;;;6.50;85.60;;;;;;5101285;28;20188;-85
2020/12/20 12:45:34;;;;;;;63.17;41.50;;;6.50;87.20;;;;;;5086019;28;20180;-85
2020/12/20 12:48:01;;;;;;;72.57;48.70;;;6.50;88.50;;;;;;5097128;28;20509;-85
2020/12/20 12:50:29;;;;;;;66.55;46.28;;;6.50;88.30;;;;;;5105982;28;20218;-85
2020/12/20 12:53:01;;;;;;;53.85;37.03;;;6.50;87.60;;;;;;5104958;28;20211;-85
2020/12/20 12:55:30;;;;;;;55.05;40.13;;;6.50;87.60;;;;;;5103875;28;20179;-85